sensor_id;sensor_type;location;lat;lon;timestamp;P1;durP1;ratioP1;P2;durP2;ratioP2
6985;SDS011;3533;51.246;6.850;2023-12-22T00:00:36;1.53;;;1.43;;
6985;SDS011;3533;51.246;6.850;2023-12-22T00:03:02;2.43;;;1.87;;
6985;SDS011;3533;51.246;6.850;2023-12-22T00:05:28;1.60;;;1.47;;
6985;SDS011;3533;51.246;6.850;2023-12-22T00:07:53;1.50;;;1.40;;
6985;SDS011;3533;51.246;6.850;2023-12-22T00:10:19;1.77;;;1.50;;
6985;SDS011;3533;51.246;6.850;2023-12-22T00:12:45;1.53;;;1.43;;
6985;SDS011;3533;51.246;6.850;2023-12-22T00:15:10;1.60;;;1.50;;
6985;SDS011;3533;51.246;6.850;2023-12-22T00:17:36;1.70;;;1.60;;
6985;SDS011;3533;51.246;6.850;2023-12-22T00:20:01;1.67;;;1.57;;
6985;SDS011;3533;51.246;6.850;2023-12-22T00:22:28;1.70;;;1.50;;
6985;SDS011;3533;51.246;6.850;2023-12-22T00:24:54;1.37;;;1.27;;
6985;SDS011;3533;51.246;6.850;2023-12-22T00:27:20;1.30;;;1.17;;
6985;SDS011;3533;51.246;6.850;2023-12-22T00:29:45;2.07;;;1.90;;
6985;SDS011;3533;51.246;6.850;2023-12-22T00:32:11;1.30;;;1.20;;
6985;SDS011;3533;51.246;6.850;2023-12-22T00:34:37;1.33;;;1.20;;
6985;SDS011;3533;51.246;6.850;2023-12-22T00:37:02;1.67;;;1.57;;
6985;SDS011;3533;51.246;6.850;2023-12-22T00:39:29;1.57;;;1.47;;
6985;SDS011;3533;51.246;6.850;2023-12-22T00:41:55;1.27;;;1.17;;
6985;SDS011;3533;51.246;6.850;2023-12-22T00:44:21;1.73;;;1.63;;
6985;SDS011;3533;51.246;6.850;2023-12-22T00:46:47;1.50;;;1.37;;
6985;SDS011;3533;51.246;6.850;2023-12-22T00:49:12;1.40;;;1.30;;
6985;SDS011;3533;51.246;6.850;2023-12-22T00:51:38;1.40;;;1.30;;
6985;SDS011;3533;51.246;6.850;2023-12-22T00:54:03;1.70;;;1.30;;
6985;SDS011;3533;51.246;6.850;2023-12-22T00:56:29;1.30;;;1.20;;
6985;SDS011;3533;51.246;6.850;2023-12-22T00:58:54;1.90;;;1.43;;
6985;SDS011;3533;51.246;6.850;2023-12-22T01:01:20;1.40;;;1.30;;
6985;SDS011;3533;51.246;6.850;2023-12-22T01:03:46;1.60;;;1.43;;
6985;SDS011;3533;51.246;6.850;2023-12-22T01:06:11;1.60;;;1.50;;
6985;SDS011;3533;51.246;6.850;2023-12-22T01:08:37;1.50;;;1.40;;
6985;SDS011;3533;51.246;6.850;2023-12-22T01:11:03;2.10;;;1.40;;
6985;SDS011;3533;51.246;6.850;2023-12-22T01:13:29;1.40;;;1.10;;
6985;SDS011;3533;51.246;6.850;2023-12-22T01:15:54;1.27;;;1.17;;
6985;SDS011;3533;51.246;6.850;2023-12-22T01:18:20;1.23;;;1.13;;
6985;SDS011;3533;51.246;6.850;2023-12-22T01:20:45;1.20;;;1.10;;
6985;SDS011;3533;51.246;6.850;2023-12-22T01:23:11;1.67;;;1.50;;
6985;SDS011;3533;51.246;6.850;2023-12-22T01:25:37;1.20;;;1.10;;
6985;SDS011;3533;51.246;6.850;2023-12-22T01:28:02;1.33;;;1.20;;
6985;SDS011;3533;51.246;6.850;2023-12-22T01:30:28;1.43;;;1.33;;
6985;SDS011;3533;51.246;6.850;2023-12-22T01:32:53;1.47;;;1.37;;
6985;SDS011;3533;51.246;6.850;2023-12-22T01:35:19;1.93;;;1.07;;
6985;SDS011;3533;51.246;6.850;2023-12-22T01:37:44;1.37;;;1.23;;
6985;SDS011;3533;51.246;6.850;2023-12-22T01:40:12;1.33;;;1.23;;
6985;SDS011;3533;51.246;6.850;2023-12-22T01:42:37;1.40;;;1.17;;
6985;SDS011;3533;51.246;6.850;2023-12-22T01:45:04;1.50;;;1.07;;
6985;SDS011;3533;51.246;6.850;2023-12-22T01:47:31;1.10;;;1.00;;
6985;SDS011;3533;51.246;6.850;2023-12-22T01:49:56;1.13;;;1.03;;
6985;SDS011;3533;51.246;6.850;2023-12-22T01:52:22;1.40;;;1.30;;
6985;SDS011;3533;51.246;6.850;2023-12-22T01:54:49;1.03;;;0.93;;
6985;SDS011;3533;51.246;6.850;2023-12-22T01:57:15;1.30;;;1.20;;
6985;SDS011;3533;51.246;6.850;2023-12-22T01:59:42;1.10;;;1.00;;
6985;SDS011;3533;51.246;6.850;2023-12-22T02:02:08;1.20;;;1.10;;
6985;SDS011;3533;51.246;6.850;2023-12-22T02:04:34;1.17;;;1.07;;
6985;SDS011;3533;51.246;6.850;2023-12-22T02:07:01;1.40;;;1.17;;
6985;SDS011;3533;51.246;6.850;2023-12-22T02:09:27;1.30;;;1.20;;
6985;SDS011;3533;51.246;6.850;2023-12-22T02:11:52;1.43;;;1.33;;
6985;SDS011;3533;51.246;6.850;2023-12-22T02:14:18;1.20;;;1.10;;
6985;SDS011;3533;51.246;6.850;2023-12-22T02:16:55;1.70;;;1.10;;
6985;SDS011;3533;51.246;6.850;2023-12-22T02:22:03;1.00;;;0.90;;
6985;SDS011;3533;51.246;6.850;2023-12-22T02:24:34;1.50;;;1.33;;
6985;SDS011;3533;51.246;6.850;2023-12-22T02:27:04;1.20;;;1.10;;
6985;SDS011;3533;51.246;6.850;2023-12-22T02:32:35;1.20;;;1.07;;
6985;SDS011;3533;51.246;6.850;2023-12-22T02:35:05;1.30;;;1.20;;
6985;SDS011;3533;51.246;6.850;2023-12-22T02:37:34;1.43;;;1.20;;
6985;SDS011;3533;51.246;6.850;2023-12-22T02:40:02;1.23;;;1.13;;
6985;SDS011;3533;51.246;6.850;2023-12-22T02:42:28;1.10;;;1.00;;
6985;SDS011;3533;51.246;6.850;2023-12-22T02:44:58;1.20;;;1.00;;
6985;SDS011;3533;51.246;6.850;2023-12-22T02:47:24;1.10;;;1.00;;
6985;SDS011;3533;51.246;6.850;2023-12-22T02:49:52;1.43;;;1.10;;
6985;SDS011;3533;51.246;6.850;2023-12-22T02:52:18;1.33;;;1.00;;
6985;SDS011;3533;51.246;6.850;2023-12-22T02:54:44;1.60;;;1.10;;
6985;SDS011;3533;51.246;6.850;2023-12-22T02:57:12;1.07;;;0.97;;
6985;SDS011;3533;51.246;6.850;2023-12-22T02:59:38;1.20;;;1.00;;
6985;SDS011;3533;51.246;6.850;2023-12-22T03:02:04;1.20;;;1.07;;
6985;SDS011;3533;51.246;6.850;2023-12-22T03:04:30;1.10;;;1.00;;
6985;SDS011;3533;51.246;6.850;2023-12-22T03:06:55;1.10;;;0.90;;
6985;SDS011;3533;51.246;6.850;2023-12-22T03:09:21;1.13;;;1.03;;
6985;SDS011;3533;51.246;6.850;2023-12-22T03:11:47;1.20;;;1.10;;
6985;SDS011;3533;51.246;6.850;2023-12-22T03:14:13;1.20;;;1.10;;
6985;SDS011;3533;51.246;6.850;2023-12-22T03:16:39;1.63;;;1.23;;
6985;SDS011;3533;51.246;6.850;2023-12-22T03:19:06;1.20;;;1.10;;
6985;SDS011;3533;51.246;6.850;2023-12-22T03:21:32;1.20;;;1.00;;
6985;SDS011;3533;51.246;6.850;2023-12-22T03:23:57;2.27;;;1.13;;
6985;SDS011;3533;51.246;6.850;2023-12-22T03:26:23;1.37;;;1.10;;
6985;SDS011;3533;51.246;6.850;2023-12-22T03:28:51;1.30;;;1.20;;
6985;SDS011;3533;51.246;6.850;2023-12-22T03:31:16;1.67;;;1.00;;
6985;SDS011;3533;51.246;6.850;2023-12-22T03:33:42;1.50;;;1.40;;
6985;SDS011;3533;51.246;6.850;2023-12-22T03:36:07;1.20;;;1.10;;
6985;SDS011;3533;51.246;6.850;2023-12-22T03:38:33;1.23;;;1.10;;
6985;SDS011;3533;51.246;6.850;2023-12-22T03:40:58;1.50;;;0.87;;
6985;SDS011;3533;51.246;6.850;2023-12-22T03:43:24;1.30;;;1.10;;
6985;SDS011;3533;51.246;6.850;2023-12-22T03:45:50;1.20;;;1.10;;
6985;SDS011;3533;51.246;6.850;2023-12-22T03:48:16;1.43;;;0.90;;
6985;SDS011;3533;51.246;6.850;2023-12-22T03:50:41;2.03;;;1.10;;
6985;SDS011;3533;51.246;6.850;2023-12-22T03:53:07;1.63;;;1.53;;
6985;SDS011;3533;51.246;6.850;2023-12-22T03:55:32;1.43;;;1.33;;
6985;SDS011;3533;51.246;6.850;2023-12-22T03:57:58;1.47;;;1.03;;
6985;SDS011;3533;51.246;6.850;2023-12-22T04:00:23;1.00;;;0.90;;
6985;SDS011;3533;51.246;6.850;2023-12-22T04:02:49;1.13;;;1.00;;
6985;SDS011;3533;51.246;6.850;2023-12-22T04:05:14;2.17;;;1.10;;
6985;SDS011;3533;51.246;6.850;2023-12-22T04:07:40;1.07;;;0.97;;
6985;SDS011;3533;51.246;6.850;2023-12-22T04:10:06;1.40;;;1.20;;
6985;SDS011;3533;51.246;6.850;2023-12-22T04:12:32;1.17;;;1.07;;
6985;SDS011;3533;51.246;6.850;2023-12-22T04:14:57;1.37;;;1.17;;
6985;SDS011;3533;51.246;6.850;2023-12-22T04:17:23;1.13;;;1.00;;
6985;SDS011;3533;51.246;6.850;2023-12-22T04:19:48;1.00;;;0.90;;
6985;SDS011;3533;51.246;6.850;2023-12-22T04:22:14;2.43;;;1.10;;
6985;SDS011;3533;51.246;6.850;2023-12-22T04:24:39;2.13;;;1.10;;
6985;SDS011;3533;51.246;6.850;2023-12-22T04:27:05;1.40;;;1.07;;
6985;SDS011;3533;51.246;6.850;2023-12-22T04:29:31;1.10;;;1.00;;
6985;SDS011;3533;51.246;6.850;2023-12-22T04:31:57;1.20;;;1.10;;
6985;SDS011;3533;51.246;6.850;2023-12-22T04:34:22;1.30;;;1.20;;
6985;SDS011;3533;51.246;6.850;2023-12-22T04:36:48;1.23;;;1.00;;
6985;SDS011;3533;51.246;6.850;2023-12-22T04:39:13;1.17;;;1.07;;
6985;SDS011;3533;51.246;6.850;2023-12-22T04:41:39;2.10;;;0.90;;
6985;SDS011;3533;51.246;6.850;2023-12-22T04:44:04;1.43;;;1.27;;
6985;SDS011;3533;51.246;6.850;2023-12-22T04:46:30;1.10;;;0.90;;
6985;SDS011;3533;51.246;6.850;2023-12-22T04:48:56;1.67;;;1.00;;
6985;SDS011;3533;51.246;6.850;2023-12-22T04:51:21;1.10;;;1.00;;
6985;SDS011;3533;51.246;6.850;2023-12-22T04:53:47;1.30;;;1.20;;
6985;SDS011;3533;51.246;6.850;2023-12-22T04:56:12;1.20;;;1.10;;
6985;SDS011;3533;51.246;6.850;2023-12-22T04:58:38;1.50;;;1.20;;
6985;SDS011;3533;51.246;6.850;2023-12-22T05:01:04;1.20;;;0.90;;
6985;SDS011;3533;51.246;6.850;2023-12-22T05:03:30;1.80;;;1.07;;
6985;SDS011;3533;51.246;6.850;2023-12-22T05:05:55;1.13;;;1.03;;
6985;SDS011;3533;51.246;6.850;2023-12-22T05:08:21;1.63;;;1.17;;
6985;SDS011;3533;51.246;6.850;2023-12-22T05:10:46;1.30;;;1.20;;
6985;SDS011;3533;51.246;6.850;2023-12-22T05:13:12;1.13;;;1.03;;
6985;SDS011;3533;51.246;6.850;2023-12-22T05:15:37;1.20;;;1.10;;
6985;SDS011;3533;51.246;6.850;2023-12-22T05:18:03;1.90;;;1.00;;
6985;SDS011;3533;51.246;6.850;2023-12-22T05:20:29;1.80;;;1.70;;
6985;SDS011;3533;51.246;6.850;2023-12-22T05:22:54;1.20;;;1.03;;
6985;SDS011;3533;51.246;6.850;2023-12-22T05:25:20;0.97;;;0.87;;
6985;SDS011;3533;51.246;6.850;2023-12-22T05:27:45;1.30;;;1.00;;
6985;SDS011;3533;51.246;6.850;2023-12-22T05:30:11;1.07;;;0.90;;
6985;SDS011;3533;51.246;6.850;2023-12-22T05:32:37;0.90;;;0.80;;
6985;SDS011;3533;51.246;6.850;2023-12-22T05:35:03;1.30;;;1.10;;
6985;SDS011;3533;51.246;6.850;2023-12-22T05:37:29;1.10;;;1.00;;
6985;SDS011;3533;51.246;6.850;2023-12-22T05:39:54;1.10;;;1.00;;
6985;SDS011;3533;51.246;6.850;2023-12-22T05:42:20;1.27;;;1.17;;
6985;SDS011;3533;51.246;6.850;2023-12-22T05:44:46;1.00;;;0.80;;
6985;SDS011;3533;51.246;6.850;2023-12-22T05:47:14;1.57;;;1.30;;
6985;SDS011;3533;51.246;6.850;2023-12-22T05:49:40;2.00;;;1.20;;
6985;SDS011;3533;51.246;6.850;2023-12-22T05:52:06;1.00;;;0.90;;
6985;SDS011;3533;51.246;6.850;2023-12-22T05:54:31;3.00;;;1.20;;
6985;SDS011;3533;51.246;6.850;2023-12-22T05:56:57;1.20;;;0.90;;
6985;SDS011;3533;51.246;6.850;2023-12-22T05:59:23;1.07;;;0.90;;
6985;SDS011;3533;51.246;6.850;2023-12-22T06:01:52;1.00;;;0.87;;
6985;SDS011;3533;51.246;6.850;2023-12-22T06:04:18;1.10;;;1.00;;
6985;SDS011;3533;51.246;6.850;2023-12-22T06:06:44;1.63;;;1.00;;
6985;SDS011;3533;51.246;6.850;2023-12-22T06:09:09;1.47;;;1.37;;
6985;SDS011;3533;51.246;6.850;2023-12-22T06:11:37;1.30;;;1.10;;
6985;SDS011;3533;51.246;6.850;2023-12-22T06:14:04;1.30;;;0.90;;
6985;SDS011;3533;51.246;6.850;2023-12-22T06:16:30;1.00;;;0.90;;
6985;SDS011;3533;51.246;6.850;2023-12-22T06:18:56;0.80;;;0.70;;
6985;SDS011;3533;51.246;6.850;2023-12-22T06:21:22;1.20;;;0.90;;
6985;SDS011;3533;51.246;6.850;2023-12-22T06:23:47;1.03;;;0.80;;
6985;SDS011;3533;51.246;6.850;2023-12-22T06:26:13;1.63;;;1.47;;
6985;SDS011;3533;51.246;6.850;2023-12-22T06:28:39;0.90;;;0.80;;
6985;SDS011;3533;51.246;6.850;2023-12-22T06:31:07;2.73;;;0.90;;
6985;SDS011;3533;51.246;6.850;2023-12-22T06:33:43;1.13;;;1.03;;
6985;SDS011;3533;51.246;6.850;2023-12-22T06:36:17;1.37;;;1.17;;
6985;SDS011;3533;51.246;6.850;2023-12-22T06:38:47;1.20;;;1.10;;
6985;SDS011;3533;51.246;6.850;2023-12-22T06:41:26;1.47;;;1.07;;
6985;SDS011;3533;51.246;6.850;2023-12-22T06:43:52;1.60;;;1.00;;
6985;SDS011;3533;51.246;6.850;2023-12-22T06:46:18;1.10;;;0.90;;
6985;SDS011;3533;51.246;6.850;2023-12-22T06:48:45;1.40;;;1.00;;
6985;SDS011;3533;51.246;6.850;2023-12-22T06:51:17;1.20;;;1.10;;
6985;SDS011;3533;51.246;6.850;2023-12-22T06:53:44;1.20;;;1.10;;
6985;SDS011;3533;51.246;6.850;2023-12-22T06:56:17;1.17;;;0.90;;
6985;SDS011;3533;51.246;6.850;2023-12-22T06:58:47;1.47;;;0.80;;
6985;SDS011;3533;51.246;6.850;2023-12-22T07:01:20;1.03;;;0.93;;
6985;SDS011;3533;51.246;6.850;2023-12-22T07:03:46;1.60;;;1.00;;
6985;SDS011;3533;51.246;6.850;2023-12-22T07:06:13;1.10;;;1.00;;
6985;SDS011;3533;51.246;6.850;2023-12-22T07:11:39;1.23;;;0.90;;
6985;SDS011;3533;51.246;6.850;2023-12-22T07:14:06;0.97;;;0.87;;
6985;SDS011;3533;51.246;6.850;2023-12-22T07:16:32;1.07;;;0.90;;
6985;SDS011;3533;51.246;6.850;2023-12-22T07:18:59;1.43;;;1.30;;
6985;SDS011;3533;51.246;6.850;2023-12-22T07:21:24;1.23;;;1.10;;
6985;SDS011;3533;51.246;6.850;2023-12-22T07:23:50;1.20;;;1.10;;
6985;SDS011;3533;51.246;6.850;2023-12-22T07:26:16;1.53;;;1.00;;
6985;SDS011;3533;51.246;6.850;2023-12-22T07:28:42;1.77;;;1.50;;
6985;SDS011;3533;51.246;6.850;2023-12-22T07:31:07;1.87;;;1.10;;
6985;SDS011;3533;51.246;6.850;2023-12-22T07:33:33;1.20;;;0.90;;
6985;SDS011;3533;51.246;6.850;2023-12-22T07:35:58;2.33;;;1.33;;
6985;SDS011;3533;51.246;6.850;2023-12-22T07:38:24;1.60;;;1.07;;
6985;SDS011;3533;51.246;6.850;2023-12-22T07:40:49;1.20;;;1.10;;
6985;SDS011;3533;51.246;6.850;2023-12-22T07:43:15;1.10;;;1.00;;
6985;SDS011;3533;51.246;6.850;2023-12-22T07:45:41;1.20;;;1.10;;
6985;SDS011;3533;51.246;6.850;2023-12-22T07:48:06;1.20;;;1.10;;
6985;SDS011;3533;51.246;6.850;2023-12-22T07:50:32;1.20;;;1.10;;
6985;SDS011;3533;51.246;6.850;2023-12-22T07:52:58;5.20;;;1.30;;
6985;SDS011;3533;51.246;6.850;2023-12-22T07:55:24;1.30;;;1.13;;
6985;SDS011;3533;51.246;6.850;2023-12-22T07:57:49;1.50;;;1.40;;
6985;SDS011;3533;51.246;6.850;2023-12-22T08:00:16;1.10;;;1.00;;
6985;SDS011;3533;51.246;6.850;2023-12-22T08:02:44;1.63;;;1.27;;
6985;SDS011;3533;51.246;6.850;2023-12-22T08:05:10;1.30;;;1.10;;
6985;SDS011;3533;51.246;6.850;2023-12-22T08:07:36;2.87;;;1.30;;
6985;SDS011;3533;51.246;6.850;2023-12-22T08:10:02;1.50;;;1.20;;
6985;SDS011;3533;51.246;6.850;2023-12-22T08:12:28;1.40;;;1.30;;
6985;SDS011;3533;51.246;6.850;2023-12-22T08:14:54;1.40;;;1.20;;
6985;SDS011;3533;51.246;6.850;2023-12-22T08:17:19;1.30;;;1.20;;
6985;SDS011;3533;51.246;6.850;2023-12-22T08:19:45;1.40;;;1.23;;
6985;SDS011;3533;51.246;6.850;2023-12-22T08:22:11;1.70;;;1.60;;
6985;SDS011;3533;51.246;6.850;2023-12-22T08:24:39;1.33;;;1.23;;
6985;SDS011;3533;51.246;6.850;2023-12-22T08:27:06;1.80;;;1.70;;
6985;SDS011;3533;51.246;6.850;2023-12-22T08:29:32;1.60;;;1.20;;
6985;SDS011;3533;51.246;6.850;2023-12-22T08:31:58;2.17;;;1.33;;
6985;SDS011;3533;51.246;6.850;2023-12-22T08:34:23;1.47;;;1.37;;
6985;SDS011;3533;51.246;6.850;2023-12-22T08:36:49;2.17;;;1.57;;
6985;SDS011;3533;51.246;6.850;2023-12-22T08:39:15;1.80;;;1.70;;
6985;SDS011;3533;51.246;6.850;2023-12-22T08:41:41;1.57;;;1.47;;
6985;SDS011;3533;51.246;6.850;2023-12-22T08:44:07;1.50;;;1.30;;
6985;SDS011;3533;51.246;6.850;2023-12-22T08:46:33;1.57;;;1.47;;
6985;SDS011;3533;51.246;6.850;2023-12-22T08:49:00;1.50;;;1.40;;
6985;SDS011;3533;51.246;6.850;2023-12-22T08:51:25;3.10;;;1.70;;
6985;SDS011;3533;51.246;6.850;2023-12-22T08:53:52;1.63;;;1.37;;
6985;SDS011;3533;51.246;6.850;2023-12-22T08:56:19;1.80;;;1.40;;
6985;SDS011;3533;51.246;6.850;2023-12-22T08:58:48;1.60;;;1.50;;
6985;SDS011;3533;51.246;6.850;2023-12-22T09:01:16;1.80;;;1.50;;
6985;SDS011;3533;51.246;6.850;2023-12-22T09:03:43;1.60;;;1.50;;
6985;SDS011;3533;51.246;6.850;2023-12-22T09:06:13;1.90;;;1.57;;
6985;SDS011;3533;51.246;6.850;2023-12-22T09:08:40;1.40;;;1.30;;
6985;SDS011;3533;51.246;6.850;2023-12-22T09:11:06;2.93;;;1.60;;
6985;SDS011;3533;51.246;6.850;2023-12-22T09:13:32;1.70;;;1.50;;
6985;SDS011;3533;51.246;6.850;2023-12-22T09:16:00;1.90;;;1.70;;
6985;SDS011;3533;51.246;6.850;2023-12-22T09:18:27;2.80;;;1.50;;
6985;SDS011;3533;51.246;6.850;2023-12-22T09:20:53;2.47;;;1.90;;
6985;SDS011;3533;51.246;6.850;2023-12-22T09:23:18;1.70;;;1.60;;
6985;SDS011;3533;51.246;6.850;2023-12-22T09:25:44;2.70;;;1.30;;
6985;SDS011;3533;51.246;6.850;2023-12-22T09:28:10;1.60;;;1.50;;
6985;SDS011;3533;51.246;6.850;2023-12-22T09:30:36;2.17;;;1.53;;
6985;SDS011;3533;51.246;6.850;2023-12-22T09:33:01;2.07;;;1.60;;
6985;SDS011;3533;51.246;6.850;2023-12-22T09:35:27;1.80;;;1.70;;
6985;SDS011;3533;51.246;6.850;2023-12-22T09:37:53;1.60;;;1.50;;
6985;SDS011;3533;51.246;6.850;2023-12-22T09:40:19;1.57;;;1.47;;
6985;SDS011;3533;51.246;6.850;2023-12-22T09:42:46;3.83;;;1.43;;
6985;SDS011;3533;51.246;6.850;2023-12-22T09:45:12;2.23;;;1.73;;
6985;SDS011;3533;51.246;6.850;2023-12-22T09:47:41;2.40;;;1.77;;
6985;SDS011;3533;51.246;6.850;2023-12-22T09:50:09;1.90;;;1.70;;
6985;SDS011;3533;51.246;6.850;2023-12-22T09:52:35;3.10;;;1.83;;
6985;SDS011;3533;51.246;6.850;2023-12-22T09:55:02;8.17;;;2.23;;
6985;SDS011;3533;51.246;6.850;2023-12-22T09:57:29;1.70;;;1.57;;
6985;SDS011;3533;51.246;6.850;2023-12-22T09:59:55;3.57;;;1.87;;
6985;SDS011;3533;51.246;6.850;2023-12-22T10:02:24;2.00;;;1.90;;
6985;SDS011;3533;51.246;6.850;2023-12-22T10:04:52;3.23;;;2.93;;
6985;SDS011;3533;51.246;6.850;2023-12-22T10:07:18;2.33;;;2.13;;
6985;SDS011;3533;51.246;6.850;2023-12-22T10:09:45;2.33;;;2.13;;
6985;SDS011;3533;51.246;6.850;2023-12-22T10:12:12;2.00;;;1.90;;
6985;SDS011;3533;51.246;6.850;2023-12-22T10:14:39;6.07;;;3.30;;
6985;SDS011;3533;51.246;6.850;2023-12-22T10:17:06;10.33;;;2.40;;
6985;SDS011;3533;51.246;6.850;2023-12-22T10:19:32;5.33;;;2.43;;
6985;SDS011;3533;51.246;6.850;2023-12-22T10:21:57;4.17;;;2.43;;
6985;SDS011;3533;51.246;6.850;2023-12-22T10:24:42;2.80;;;2.50;;
6985;SDS011;3533;51.246;6.850;2023-12-22T10:27:09;2.40;;;2.20;;
6985;SDS011;3533;51.246;6.850;2023-12-22T10:29:35;2.43;;;2.23;;
6985;SDS011;3533;51.246;6.850;2023-12-22T10:32:02;4.20;;;2.10;;
6985;SDS011;3533;51.246;6.850;2023-12-22T10:34:31;2.40;;;2.00;;
6985;SDS011;3533;51.246;6.850;2023-12-22T10:37:00;3.97;;;2.83;;
6985;SDS011;3533;51.246;6.850;2023-12-22T10:39:30;3.43;;;2.33;;
6985;SDS011;3533;51.246;6.850;2023-12-22T10:41:56;3.60;;;2.73;;
6985;SDS011;3533;51.246;6.850;2023-12-22T10:44:25;3.17;;;2.57;;
6985;SDS011;3533;51.246;6.850;2023-12-22T10:46:51;3.50;;;2.63;;
6985;SDS011;3533;51.246;6.850;2023-12-22T10:49:18;3.80;;;2.77;;
6985;SDS011;3533;51.246;6.850;2023-12-22T10:51:44;3.73;;;2.77;;
6985;SDS011;3533;51.246;6.850;2023-12-22T10:54:10;3.40;;;3.10;;
6985;SDS011;3533;51.246;6.850;2023-12-22T10:56:35;3.07;;;2.43;;
6985;SDS011;3533;51.246;6.850;2023-12-22T10:59:01;2.73;;;2.53;;
6985;SDS011;3533;51.246;6.850;2023-12-22T11:01:31;5.50;;;2.83;;
6985;SDS011;3533;51.246;6.850;2023-12-22T11:04:03;2.70;;;2.50;;
6985;SDS011;3533;51.246;6.850;2023-12-22T11:06:32;3.90;;;2.10;;
6985;SDS011;3533;51.246;6.850;2023-12-22T11:09:00;2.63;;;2.43;;
6985;SDS011;3533;51.246;6.850;2023-12-22T11:11:34;2.37;;;2.17;;
6985;SDS011;3533;51.246;6.850;2023-12-22T11:14:01;4.20;;;2.67;;
6985;SDS011;3533;51.246;6.850;2023-12-22T13:26:21;1.50;;;1.40;;
6985;SDS011;3533;51.246;6.850;2023-12-22T13:28:48;2.20;;;1.70;;
6985;SDS011;3533;51.246;6.850;2023-12-22T13:31:14;1.60;;;1.50;;
6985;SDS011;3533;51.246;6.850;2023-12-22T13:33:43;1.73;;;1.63;;
6985;SDS011;3533;51.246;6.850;2023-12-22T13:36:09;1.33;;;1.20;;
6985;SDS011;3533;51.246;6.850;2023-12-22T13:38:35;1.47;;;1.30;;
6985;SDS011;3533;51.246;6.850;2023-12-22T13:41:01;1.40;;;1.30;;
6985;SDS011;3533;51.246;6.850;2023-12-22T13:43:28;1.57;;;1.47;;
6985;SDS011;3533;51.246;6.850;2023-12-22T13:45:54;2.27;;;1.53;;
6985;SDS011;3533;51.246;6.850;2023-12-22T13:48:20;1.30;;;1.20;;
6985;SDS011;3533;51.246;6.850;2023-12-22T13:50:54;1.50;;;1.30;;
6985;SDS011;3533;51.246;6.850;2023-12-22T13:53:22;1.90;;;1.80;;
6985;SDS011;3533;51.246;6.850;2023-12-22T13:55:54;1.53;;;1.43;;
6985;SDS011;3533;51.246;6.850;2023-12-22T13:58:23;1.63;;;1.53;;
6985;SDS011;3533;51.246;6.850;2023-12-22T14:00:49;1.90;;;1.80;;
6985;SDS011;3533;51.246;6.850;2023-12-22T14:03:15;1.93;;;1.47;;
6985;SDS011;3533;51.246;6.850;2023-12-22T14:05:41;1.60;;;1.50;;
6985;SDS011;3533;51.246;6.850;2023-12-22T14:08:08;1.60;;;1.50;;
6985;SDS011;3533;51.246;6.850;2023-12-22T14:10:33;1.27;;;1.17;;
6985;SDS011;3533;51.246;6.850;2023-12-22T14:12:59;1.47;;;1.37;;
6985;SDS011;3533;51.246;6.850;2023-12-22T14:15:25;1.80;;;1.70;;
6985;SDS011;3533;51.246;6.850;2023-12-22T14:17:54;1.83;;;1.73;;
6985;SDS011;3533;51.246;6.850;2023-12-22T14:20:19;1.60;;;1.50;;
6985;SDS011;3533;51.246;6.850;2023-12-22T14:22:45;1.43;;;1.30;;
6985;SDS011;3533;51.246;6.850;2023-12-22T14:25:11;1.67;;;1.57;;
6985;SDS011;3533;51.246;6.850;2023-12-22T14:27:37;1.43;;;1.33;;
6985;SDS011;3533;51.246;6.850;2023-12-22T14:30:02;2.07;;;1.50;;
6985;SDS011;3533;51.246;6.850;2023-12-22T14:32:28;1.97;;;1.87;;
6985;SDS011;3533;51.246;6.850;2023-12-22T14:34:55;2.13;;;1.90;;
6985;SDS011;3533;51.246;6.850;2023-12-22T14:37:20;6.80;;;6.07;;
6985;SDS011;3533;51.246;6.850;2023-12-22T14:39:46;2.17;;;1.97;;
6985;SDS011;3533;51.246;6.850;2023-12-22T14:42:15;1.70;;;1.60;;
6985;SDS011;3533;51.246;6.850;2023-12-22T14:44:41;2.37;;;2.17;;
6985;SDS011;3533;51.246;6.850;2023-12-22T14:47:06;2.13;;;1.83;;
6985;SDS011;3533;51.246;6.850;2023-12-22T14:49:32;2.20;;;2.10;;
6985;SDS011;3533;51.246;6.850;2023-12-22T14:51:58;2.10;;;2.00;;
6985;SDS011;3533;51.246;6.850;2023-12-22T14:54:24;3.17;;;2.50;;
6985;SDS011;3533;51.246;6.850;2023-12-22T14:56:50;2.27;;;2.07;;
6985;SDS011;3533;51.246;6.850;2023-12-22T14:59:16;2.10;;;2.00;;
6985;SDS011;3533;51.246;6.850;2023-12-22T15:01:42;4.10;;;2.70;;
6985;SDS011;3533;51.246;6.850;2023-12-22T15:04:08;3.83;;;2.60;;
6985;SDS011;3533;51.246;6.850;2023-12-22T15:06:38;3.33;;;3.07;;
6985;SDS011;3533;51.246;6.850;2023-12-22T15:09:10;2.53;;;2.33;;
6985;SDS011;3533;51.246;6.850;2023-12-22T15:11:42;2.97;;;2.77;;
6985;SDS011;3533;51.246;6.850;2023-12-22T15:14:07;2.97;;;2.77;;
6985;SDS011;3533;51.246;6.850;2023-12-22T15:16:33;2.63;;;2.40;;
6985;SDS011;3533;51.246;6.850;2023-12-22T15:18:58;4.63;;;2.83;;
6985;SDS011;3533;51.246;6.850;2023-12-22T15:21:24;2.87;;;2.67;;
6985;SDS011;3533;51.246;6.850;2023-12-22T15:23:50;3.27;;;3.07;;
6985;SDS011;3533;51.246;6.850;2023-12-22T15:26:22;3.90;;;2.77;;
6985;SDS011;3533;51.246;6.850;2023-12-22T15:28:49;3.40;;;3.10;;
6985;SDS011;3533;51.246;6.850;2023-12-22T15:31:14;3.40;;;3.10;;
6985;SDS011;3533;51.246;6.850;2023-12-22T15:33:40;3.20;;;2.90;;
6985;SDS011;3533;51.246;6.850;2023-12-22T15:36:06;3.63;;;3.33;;
6985;SDS011;3533;51.246;6.850;2023-12-22T15:38:31;3.10;;;2.90;;
6985;SDS011;3533;51.246;6.850;2023-12-22T15:41:00;3.10;;;2.90;;
6985;SDS011;3533;51.246;6.850;2023-12-22T15:43:26;3.30;;;3.00;;
6985;SDS011;3533;51.246;6.850;2023-12-22T15:45:52;3.20;;;3.00;;
6985;SDS011;3533;51.246;6.850;2023-12-22T15:48:18;3.50;;;3.20;;
6985;SDS011;3533;51.246;6.850;2023-12-22T15:50:43;5.47;;;3.60;;
6985;SDS011;3533;51.246;6.850;2023-12-22T15:53:11;3.43;;;3.23;;
6985;SDS011;3533;51.246;6.850;2023-12-22T15:55:36;4.83;;;3.23;;
6985;SDS011;3533;51.246;6.850;2023-12-22T15:58:02;2.87;;;2.67;;
6985;SDS011;3533;51.246;6.850;2023-12-22T16:00:27;3.00;;;2.73;;
6985;SDS011;3533;51.246;6.850;2023-12-22T16:02:53;5.37;;;3.57;;
6985;SDS011;3533;51.246;6.850;2023-12-22T16:05:19;3.80;;;3.50;;
6985;SDS011;3533;51.246;6.850;2023-12-22T16:07:44;3.33;;;3.03;;
6985;SDS011;3533;51.246;6.850;2023-12-22T16:10:10;2.97;;;2.77;;
6985;SDS011;3533;51.246;6.850;2023-12-22T16:12:37;4.33;;;3.93;;
6985;SDS011;3533;51.246;6.850;2023-12-22T16:15:03;5.63;;;4.00;;
6985;SDS011;3533;51.246;6.850;2023-12-22T16:17:29;3.50;;;3.30;;
6985;SDS011;3533;51.246;6.850;2023-12-22T16:19:54;4.27;;;3.63;;
6985;SDS011;3533;51.246;6.850;2023-12-22T16:22:20;4.07;;;3.70;;
6985;SDS011;3533;51.246;6.850;2023-12-22T16:24:45;3.63;;;3.30;;
6985;SDS011;3533;51.246;6.850;2023-12-22T16:27:11;4.83;;;3.53;;
6985;SDS011;3533;51.246;6.850;2023-12-22T16:29:40;7.53;;;4.50;;
6985;SDS011;3533;51.246;6.850;2023-12-22T16:32:05;6.27;;;4.30;;
6985;SDS011;3533;51.246;6.850;2023-12-22T16:34:31;4.57;;;3.93;;
6985;SDS011;3533;51.246;6.850;2023-12-22T16:36:57;84.93;;;11.53;;
6985;SDS011;3533;51.246;6.850;2023-12-22T16:39:22;203.90;;;20.77;;
6985;SDS011;3533;51.246;6.850;2023-12-22T16:41:48;261.60;;;22.17;;
6985;SDS011;3533;51.246;6.850;2023-12-22T16:44:15;182.07;;;23.83;;
6985;SDS011;3533;51.246;6.850;2023-12-22T16:46:43;97.03;;;16.57;;
6985;SDS011;3533;51.246;6.850;2023-12-22T16:49:09;188.27;;;25.20;;
6985;SDS011;3533;51.246;6.850;2023-12-22T16:51:35;179.33;;;24.10;;
6985;SDS011;3533;51.246;6.850;2023-12-22T16:54:00;150.83;;;21.70;;
6985;SDS011;3533;51.246;6.850;2023-12-22T16:56:27;147.37;;;22.27;;
6985;SDS011;3533;51.246;6.850;2023-12-22T16:58:53;99.50;;;17.67;;
6985;SDS011;3533;51.246;6.850;2023-12-22T17:01:18;119.60;;;19.03;;
6985;SDS011;3533;51.246;6.850;2023-12-22T17:03:44;84.90;;;16.70;;
6985;SDS011;3533;51.246;6.850;2023-12-22T17:06:10;90.90;;;17.43;;
6985;SDS011;3533;51.246;6.850;2023-12-22T17:08:35;81.97;;;15.17;;
6985;SDS011;3533;51.246;6.850;2023-12-22T17:11:01;78.57;;;14.97;;
6985;SDS011;3533;51.246;6.850;2023-12-22T17:13:26;72.67;;;14.03;;
6985;SDS011;3533;51.246;6.850;2023-12-22T17:15:52;55.97;;;12.90;;
6985;SDS011;3533;51.246;6.850;2023-12-22T17:18:17;41.73;;;9.93;;
6985;SDS011;3533;51.246;6.850;2023-12-22T17:20:43;29.77;;;8.37;;
6985;SDS011;3533;51.246;6.850;2023-12-22T17:23:08;22.43;;;7.40;;
6985;SDS011;3533;51.246;6.850;2023-12-22T17:25:34;16.53;;;5.83;;